Time;durP1;ratioP1;P1;durP2;ratioP2;P2;SDS_P1;SDS_P2;PMS_P1;PMS_P2;Temp;Humidity;BMP_temperature;BMP_pressure;BME280_temperature;BME280_humidity;BME280_pressure;Samples;Min_cycle;Max_cycle;Signal;HPM_P1;HPM_P2
2023/12/22 00:00:50;;;;;;;4.40;1.00;;;5.10;74.30;;;4.27;74.02;96264.25;5014406;28;20462;-69
2023/12/22 00:03:20;;;;;;;2.07;1.00;;;5.10;74.90;;;4.14;72.86;96260.63;5011202;28;20988;-69
2023/12/22 00:05:47;;;;;;;2.43;0.90;;;5.10;74.60;;;4.15;74.02;96289.00;5007392;28;20801;-70
2023/12/22 00:08:14;;;;;;;2.23;1.00;;;5.00;75.00;;;4.23;74.03;96282.56;5012072;28;20458;-70
2023/12/22 00:10:42;;;;;;;2.57;1.00;;;5.00;75.40;;;4.12;74.36;96284.09;5014864;28;20454;-70
2023/12/22 00:13:09;;;;;;;3.27;1.30;;;5.00;75.30;;;4.19;75.00;96284.03;5000738;28;21123;-70
2023/12/22 00:15:37;;;;;;;6.10;1.40;;;5.00;75.70;;;4.19;75.91;96274.19;5011814;28;20456;-70
2023/12/22 00:18:06;;;;;;;3.53;1.07;;;5.00;76.20;;;4.09;76.68;96289.88;4998422;28;20535;-70
2023/12/22 00:20:35;;;;;;;1.17;0.40;;;4.90;76.30;;;3.53;76.81;96218.31;5010016;28;20458;-69
2023/12/22 00:23:02;;;;;;;4.07;1.07;;;4.90;76.60;;;3.95;77.19;96300.66;5000690;28;20488;-69
2023/12/22 00:25:30;;;;;;;4.40;1.67;;;4.80;77.00;;;3.97;78.66;96295.91;5016352;28;20446;-68
2023/12/22 00:27:57;;;;;;;4.33;0.90;;;4.80;77.50;;;3.85;78.82;96286.13;5018466;28;20461;-69
2023/12/22 00:30:26;;;;;;;3.60;0.80;;;4.70;77.80;;;3.78;79.13;96275.47;4996231;28;20465;-68
2023/12/22 00:32:53;;;;;;;3.47;1.20;;;4.60;78.10;;;3.90;79.89;96280.94;5010991;28;20457;-68
2023/12/22 00:35:21;;;;;;;3.73;0.90;;;4.60;78.60;;;3.69;81.10;96281.06;5021249;28;20556;-68
2023/12/22 00:37:49;;;;;;;5.07;1.03;;;4.60;78.80;;;3.72;80.77;96281.69;5002983;28;20459;-68
2023/12/22 00:40:16;;;;;;;3.60;0.97;;;4.50;79.10;;;3.75;81.04;96290.06;4998635;28;21051;-68
2023/12/22 00:42:44;;;;;;;0.60;0.60;;;4.50;79.40;;;3.72;81.33;96279.81;5022676;28;21045;-68
2023/12/22 00:45:12;;;;;;;4.33;1.20;;;4.50;79.50;;;3.63;81.60;96303.31;5006252;28;20485;-69
2023/12/22 00:47:40;;;;;;;3.20;1.07;;;4.50;79.80;;;3.57;81.92;96314.84;4999479;28;20456;-68
2023/12/22 00:50:08;;;;;;;3.53;1.30;;;4.50;80.00;;;3.61;82.73;96326.72;5012586;28;20453;-69
2023/12/22 00:52:36;;;;;;;2.33;0.97;;;4.50;80.40;;;3.57;83.36;96330.88;5019162;28;20926;-69
2023/12/22 00:55:05;;;;;;;7.80;1.50;;;4.40;80.60;;;3.59;83.23;96322.63;5018100;28;20548;-69
2023/12/22 00:57:33;;;;;;;4.53;1.10;;;4.40;80.70;;;3.63;83.55;96318.50;4998598;28;20522;-69
2023/12/22 01:00:00;;;;;;;8.10;1.73;;;4.40;81.10;;;3.57;83.50;96327.38;5022811;28;20511;-69
2023/12/22 01:02:27;;;;;;;3.70;1.43;;;4.40;81.10;;;3.68;83.58;96308.81;5019006;28;20458;-68
2023/12/22 01:04:54;;;;;;;7.60;1.50;;;4.50;81.40;;;3.58;83.56;96312.97;5000380;28;20463;-69
2023/12/22 01:07:21;;;;;;;2.53;0.83;;;4.40;81.20;;;3.63;83.85;96308.63;5010766;28;20468;-68
2023/12/22 01:09:48;;;;;;;6.10;1.20;;;4.40;81.50;;;3.61;84.08;96299.19;5010959;28;20469;-68
2023/12/22 01:12:17;;;;;;;4.50;1.73;;;4.40;81.60;;;3.65;84.06;96316.44;5023649;28;20471;-69
2023/12/22 01:14:45;;;;;;;3.90;1.43;;;4.40;81.90;;;3.57;84.59;96314.84;5006419;28;20506;-68
2023/12/22 01:17:12;;;;;;;2.73;1.00;;;4.40;82.10;;;3.52;84.79;96317.31;5010370;28;20494;-69
2023/12/22 01:19:40;;;;;;;4.80;2.03;;;4.30;82.00;;;3.47;84.64;96309.13;5010094;28;21055;-69
2023/12/22 01:22:07;;;;;;;6.13;1.47;;;4.30;82.00;;;3.55;85.44;96300.84;5004884;28;20453;-69
2023/12/22 01:24:39;;;;;;;3.97;1.70;;;4.30;82.20;;;3.48;85.47;96311.56;5000640;28;20565;-69
2023/12/22 01:27:06;;;;;;;8.93;1.47;;;4.30;82.50;;;3.43;85.78;96323.94;5000255;28;20450;-69
2023/12/22 01:29:34;;;;;;;5.23;1.43;;;4.30;82.20;;;3.57;86.06;96330.03;5001268;28;20460;-69
2023/12/22 01:32:03;;;;;;;5.63;1.20;;;4.30;82.90;;;3.52;85.75;96317.31;5012508;28;21031;-69
2023/12/22 01:34:31;;;;;;;4.60;1.30;;;4.40;82.60;;;3.58;85.40;96332.50;4982338;28;20473;-69
2023/12/22 01:36:59;;;;;;;6.93;1.63;;;4.40;82.80;;;3.57;86.17;96335.38;5008167;28;20465;-68
2023/12/22 01:39:27;;;;;;;9.30;1.53;;;4.40;82.60;;;3.51;85.92;96324.53;5018387;28;20459;-68
2023/12/22 01:41:54;;;;;;;7.20;1.13;;;4.40;82.80;;;3.61;86.26;96341.94;5013094;28;20478;-69
2023/12/22 01:44:21;;;;;;;2.27;1.10;;;4.50;82.90;;;3.53;86.01;96326.97;4995236;28;20461;-69
2023/12/22 01:46:54;;;;;;;5.50;1.17;;;4.40;82.80;;;3.66;86.02;96342.94;4998641;28;20451;-69
2023/12/22 01:49:23;;;;;;;3.87;1.40;;;4.50;82.90;;;3.61;85.94;96348.09;4999243;28;21057;-69
2023/12/22 01:51:51;;;;;;;8.67;1.07;;;4.50;82.70;;;3.64;86.16;96353.00;5002499;28;20445;-68
2023/12/22 01:54:20;;;;;;;4.03;0.77;;;4.50;83.00;;;3.65;85.95;96349.31;5016536;28;20527;-69
2023/12/22 01:56:48;;;;;;;4.13;0.90;;;4.50;83.00;;;3.59;86.90;96317.28;5015084;28;20461;-67
2023/12/22 01:59:16;;;;;;;7.03;1.00;;;4.50;83.50;;;3.74;86.94;96341.88;5022400;28;20480;-68
2023/12/22 02:01:45;;;;;;;1.10;0.83;;;4.50;83.30;;;3.52;86.77;96338.69;5012580;28;20472;-69
2023/12/22 02:04:16;;;;;;;3.03;0.73;;;4.50;83.20;;;3.62;87.29;96322.19;5016583;28;20703;-67
2023/12/22 02:06:44;;;;;;;6.23;1.10;;;4.50;83.70;;;3.58;87.80;96321.00;4998311;28;20475;-67
2023/12/22 02:09:11;;;;;;;4.13;1.37;;;4.40;83.70;;;3.64;87.45;96304.94;4986457;28;20450;-68
2023/12/22 02:11:40;;;;;;;1.00;0.50;;;4.40;84.00;;;3.59;87.43;96301.25;5005934;28;20518;-67
2023/12/22 02:14:08;;;;;;;4.70;1.13;;;4.40;83.90;;;3.64;87.02;96304.09;5022885;28;20494;-67
2023/12/22 02:16:46;;;;;;;3.17;0.90;;;4.50;83.80;;;3.59;87.59;96335.97;5001169;28;20470;-69
2023/12/22 02:19:31;;;;;;;3.63;0.73;;;4.50;83.80;;;3.74;87.25;96333.06;5007147;28;20461;-68
2023/12/22 02:22:05;;;;;;;3.03;0.90;;;4.50;84.00;;;3.76;87.26;96320.28;5011067;28;20882;-68
2023/12/22 02:24:33;;;;;;;4.40;1.03;;;4.50;83.90;;;3.76;86.32;96302.41;5003223;28;20542;-68
2023/12/22 02:27:06;;;;;;;3.83;0.70;;;4.50;83.70;;;3.64;86.32;96307.59;5020049;28;20515;-68
2023/12/22 02:29:38;;;;;;;2.60;0.90;;;4.50;83.40;;;3.52;86.55;96306.63;5017242;28;20473;-67
2023/12/22 02:32:13;;;;;;;2.47;0.67;;;4.50;83.30;;;3.68;86.33;96303.47;5017325;28;20554;-68
2023/12/22 02:34:43;;;;;;;3.97;0.90;;;4.50;83.30;;;3.76;85.68;96322.97;5019502;28;20559;-68
2023/12/22 02:37:11;;;;;;;1.60;0.87;;;4.50;82.90;;;3.72;85.90;96327.91;5019241;28;20480;-68
2023/12/22 02:39:43;;;;;;;2.20;0.60;;;4.60;82.80;;;3.71;84.40;96330.78;5000155;28;20505;-68
2023/12/22 02:42:11;;;;;;;0.80;0.80;;;4.50;82.50;;;3.66;84.97;96324.22;5019000;28;20959;-67
2023/12/22 02:44:39;;;;;;;1.17;0.70;;;4.50;82.30;;;3.69;83.91;96318.47;4998344;28;20472;-68
2023/12/22 02:47:07;;;;;;;1.90;0.97;;;4.50;82.10;;;3.75;83.47;96321.34;4993739;28;20466;-68
2023/12/22 02:49:34;;;;;;;3.27;0.83;;;4.60;82.10;;;3.71;83.19;96339.63;5003773;28;20465;-68
2023/12/22 02:52:02;;;;;;;2.10;0.60;;;4.60;81.70;;;3.69;83.22;96325.66;5017569;28;20472;-69
2023/12/22 02:54:31;;;;;;;2.77;1.10;;;4.60;81.70;;;3.69;84.74;96328.34;5019495;28;20526;-67
2023/12/22 02:57:00;;;;;;;6.67;0.80;;;4.60;82.00;;;3.71;84.96;96346.81;5019630;28;20935;-69
2023/12/22 02:59:28;;;;;;;1.80;0.40;;;4.50;82.30;;;3.60;86.21;96343.78;5021422;28;20938;-68
2023/12/22 03:01:55;;;;;;;0.50;0.40;;;4.50;82.70;;;3.57;86.04;96354.06;5020281;28;20464;-68
2023/12/22 03:04:23;;;;;;;1.77;0.30;;;4.50;82.90;;;3.48;86.46;96350.81;5000593;28;20560;-68
2023/12/22 03:06:51;;;;;;;1.70;0.50;;;4.40;83.00;;;3.43;87.00;96367.47;5010929;28;20509;-68
2023/12/22 03:09:18;;;;;;;5.10;0.77;;;4.30;83.30;;;3.31;87.86;96361.97;5007691;28;20457;-68
2023/12/22 03:11:45;;;;;;;2.97;1.57;;;4.30;83.60;;;3.31;88.59;96369.97;5019811;28;20457;-69
2023/12/22 03:14:15;;;;;;;2.33;0.83;;;4.30;84.20;;;3.36;88.52;96366.69;5001509;28;20484;-68
2023/12/22 03:16:42;;;;;;;2.20;0.67;;;4.30;83.90;;;3.40;87.85;96367.91;5017955;28;20959;-68
2023/12/22 03:19:10;;;;;;;1.17;0.40;;;4.30;83.90;;;3.37;87.68;96377.13;5015704;28;20506;-68
2023/12/22 03:21:37;;;;;;;1.10;0.70;;;4.30;83.90;;;3.45;86.78;96380.63;5020017;28;20499;-69
2023/12/22 03:24:05;;;;;;;2.10;0.50;;;4.30;83.20;;;3.48;86.85;96389.00;5017564;28;20475;-69
2023/12/22 03:26:33;;;;;;;4.13;0.40;;;4.30;83.50;;;2.92;86.74;96312.97;5018754;28;20575;-69
2023/12/22 03:29:00;;;;;;;0.70;0.40;;;4.30;83.30;;;3.42;87.57;96381.84;5005925;28;20517;-69
2023/12/22 03:31:30;;;;;;;2.10;0.60;;;4.30;83.50;;;3.51;88.00;96380.59;5010912;28;20477;-69
2023/12/22 03:33:57;;;;;;;0.73;0.40;;;4.30;83.90;;;3.36;87.30;96380.84;4995547;28;20468;-69
2023/12/22 03:36:24;;;;;;;2.63;0.30;;;4.30;83.70;;;3.34;87.88;96398.91;5017683;28;20460;-69
2023/12/22 03:38:52;;;;;;;0.90;0.43;;;4.30;83.80;;;3.35;87.86;96387.22;5016010;28;20465;-68
2023/12/22 03:41:19;;;;;;;0.53;0.30;;;4.20;83.80;;;3.30;87.59;96387.03;5015165;28;20461;-68
2023/12/22 03:43:47;;;;;;;0.60;0.40;;;4.20;83.90;;;3.07;87.66;96358.94;5001460;28;21096;-68
2023/12/22 03:46:14;;;;;;;0.90;0.40;;;4.20;83.70;;;3.24;88.00;96371.81;4998793;28;20461;-68
2023/12/22 03:48:43;;;;;;;0.60;0.20;;;4.10;83.80;;;2.70;85.93;96302.56;4998606;28;20462;-69
2023/12/22 03:51:13;;;;;;;0.60;0.40;;;4.10;82.80;;;3.30;86.33;96363.00;5019357;28;20469;-69
2023/12/22 03:53:40;;;;;;;1.60;0.43;;;4.10;82.70;;;3.26;85.29;96367.09;5015336;28;21413;-68
2023/12/22 03:56:08;;;;;;;1.50;0.40;;;4.10;82.50;;;3.11;85.71;96348.66;4997035;28;20500;-69
2023/12/22 03:58:38;;;;;;;2.47;0.60;;;4.10;82.40;;;3.00;85.61;96363.47;5017383;28;21315;-68
2023/12/22 04:01:07;;;;;;;0.67;0.40;;;4.00;81.90;;;3.03;86.16;96346.22;5003711;28;20514;-68
2023/12/22 04:03:34;;;;;;;3.03;0.60;;;4.00;82.40;;;2.96;85.44;96362.25;5006027;28;20939;-69
2023/12/22 04:06:05;;;;;;;4.80;0.50;;;3.90;82.20;;;3.05;84.92;96360.19;5015301;28;20482;-68
2023/12/22 04:08:32;;;;;;;7.27;0.73;;;3.90;82.30;;;3.00;84.58;96339.47;5011662;28;20458;-67
2023/12/22 04:11:00;;;;;;;3.07;0.50;;;4.00;81.80;;;3.08;84.57;96335.75;5015229;28;20843;-68
2023/12/22 04:13:27;;;;;;;1.90;0.60;;;4.00;81.60;;;3.11;83.97;96354.84;5017776;28;20472;-68
2023/12/22 04:15:54;;;;;;;0.97;0.37;;;4.00;81.70;;;3.06;82.94;96333.28;5021687;28;20482;-68
2023/12/22 04:18:23;;;;;;;4.20;0.40;;;4.00;81.00;;;3.06;83.68;96338.59;5007626;28;20461;-69
2023/12/22 04:20:53;;;;;;;1.70;0.70;;;4.00;81.30;;;3.09;82.87;96351.53;5011806;28;20487;-69
2023/12/22 04:23:21;;;;;;;2.67;0.80;;;4.00;80.90;;;3.07;82.46;96364.28;4994611;28;21004;-69
2023/12/22 04:25:50;;;;;;;0.70;0.40;;;4.00;80.40;;;3.06;82.30;96367.16;5014327;28;20573;-69
2023/12/22 04:28:17;;;;;;;1.10;0.40;;;4.10;80.40;;;3.09;82.29;96372.88;5005056;28;20462;-68
2023/12/22 04:30:45;;;;;;;2.50;0.40;;;4.10;80.70;;;3.13;82.16;96345.81;5011835;28;20558;-69
2023/12/22 04:33:12;;;;;;;0.97;0.40;;;4.00;80.60;;;3.04;82.23;96353.22;5017013;28;20452;-69
2023/12/22 04:35:40;;;;;;;5.70;0.93;;;4.00;80.40;;;3.04;82.49;96364.69;5013820;28;20486;-68
2023/12/22 04:38:08;;;;;;;0.80;0.33;;;4.00;80.60;;;3.03;83.05;96372.88;5017875;28;20794;-69
2023/12/22 04:40:37;;;;;;;0.47;0.27;;;4.00;80.80;;;3.00;83.72;96360.81;5010148;28;20457;-69
2023/12/22 04:43:05;;;;;;;0.77;0.30;;;3.90;81.00;;;2.98;83.27;96377.00;5016726;28;20462;-69
2023/12/22 04:45:33;;;;;;;0.63;0.50;;;3.90;81.00;;;2.91;84.31;96383.38;5012270;28;20458;-69
2023/12/22 04:48:01;;;;;;;1.50;0.60;;;3.90;81.10;;;2.92;84.77;96395.69;5002015;28;20962;-69
2023/12/22 04:50:28;;;;;;;2.50;0.53;;;3.80;81.50;;;2.86;85.57;96393.84;4996115;28;20829;-67
2023/12/22 04:52:55;;;;;;;0.53;0.40;;;3.80;81.80;;;2.71;86.67;96386.88;4997900;28;20465;-68
2023/12/22 04:55:23;;;;;;;1.03;0.30;;;3.80;82.10;;;2.79;86.66;96393.84;5010645;28;20490;-69
2023/12/22 04:57:52;;;;;;;1.47;0.53;;;3.70;82.30;;;2.76;86.45;96399.63;5017832;28;20489;-69
2023/12/22 05:00:20;;;;;;;0.77;0.40;;;3.70;82.50;;;2.72;86.28;96399.19;4994468;28;20450;-71
2023/12/22 05:02:48;;;;;;;0.67;0.30;;;3.70;82.40;;;2.74;87.35;96407.81;5012392;28;20457;-69
2023/12/22 05:05:16;;;;;;;2.20;0.50;;;3.70;82.60;;;2.75;87.49;96398.78;5016703;28;20460;-69
2023/12/22 05:07:45;;;;;;;5.50;0.97;;;3.70;83.10;;;2.77;87.01;96388.72;4998872;28;20529;-68
2023/12/22 05:10:12;;;;;;;0.43;0.33;;;3.70;82.50;;;2.70;86.66;96379.91;5019013;28;21008;-69
2023/12/22 05:12:40;;;;;;;1.00;0.53;;;3.70;82.40;;;2.27;85.84;96309.13;5019122;28;20452;-69
2023/12/22 05:15:09;;;;;;;0.70;0.30;;;3.70;82.30;;;2.75;85.73;96414.78;5006803;28;20471;-68
2023/12/22 05:17:36;;;;;;;1.47;0.60;;;3.70;82.10;;;2.74;86.31;96417.66;4993724;28;21041;-68
2023/12/22 05:20:06;;;;;;;1.27;0.40;;;3.70;82.10;;;2.79;85.39;96417.88;4994825;28;20549;-69
2023/12/22 05:22:37;;;;;;;2.50;0.93;;;3.70;81.80;;;2.90;84.96;96419.09;5011788;28;20454;-69
2023/12/22 05:25:07;;;;;;;0.70;0.43;;;3.80;81.50;;;2.82;84.69;96412.13;5016612;28;20564;-68
2023/12/22 05:27:34;;;;;;;1.50;0.40;;;3.80;81.20;;;2.92;83.99;96431.22;5015473;28;20464;-68
2023/12/22 05:30:03;;;;;;;1.20;0.60;;;3.90;81.20;;;2.99;84.04;96433.88;5018841;28;20449;-69
2023/12/22 05:32:32;;;;;;;1.33;0.40;;;3.90;81.40;;;3.04;84.74;96438.59;4994410;28;20462;-69
2023/12/22 05:34:59;;;;;;;1.13;0.47;;;3.90;81.50;;;2.88;85.05;96407.81;5011181;28;20477;-68
2023/12/22 05:37:27;;;;;;;3.03;0.90;;;4.00;81.80;;;3.02;85.23;96420.13;5005758;28;20478;-69
2023/12/22 05:39:55;;;;;;;2.20;0.70;;;3.90;82.10;;;3.04;86.58;96428.72;5002953;28;20453;-70
2023/12/22 05:42:22;;;;;;;1.00;0.43;;;3.90;82.40;;;2.81;87.03;96419.31;5019458;28;20459;-70
2023/12/22 05:44:49;;;;;;;1.80;0.57;;;3.90;82.60;;;2.93;87.59;96440.03;5012289;28;20461;-71
2023/12/22 05:47:17;;;;;;;0.93;0.67;;;3.90;82.90;;;3.00;87.88;96443.53;5012938;28;20469;-71
2023/12/22 05:49:46;;;;;;;2.87;0.70;;;3.90;83.10;;;3.02;88.02;96445.97;5019364;28;21054;-69
2023/12/22 05:52:14;;;;;;;2.53;0.53;;;3.90;83.20;;;2.93;88.33;96442.69;5012070;28;21186;-69
2023/12/22 05:54:41;;;;;;;0.70;0.40;;;3.90;83.50;;;2.90;87.48;96453.78;5015388;28;20455;-71
2023/12/22 05:57:09;;;;;;;1.10;0.50;;;3.90;82.80;;;2.88;88.40;96447.81;5012675;28;20455;-69
2023/12/22 05:59:36;;;;;;;0.60;0.50;;;3.90;83.50;;;2.68;89.15;96446.78;5018531;28;20480;-69
2023/12/22 06:02:05;;;;;;;3.60;0.60;;;3.80;83.50;;;2.59;88.70;96436.50;4996224;28;20455;-69
2023/12/22 06:04:32;;;;;;;1.10;0.50;;;3.60;83.30;;;2.52;89.23;96448.00;5019089;28;20455;-70
2023/12/22 06:07:00;;;;;;;4.50;0.53;;;3.60;83.50;;;2.53;89.72;96444.31;4997587;28;20458;-69
2023/12/22 06:09:29;;;;;;;0.30;0.30;;;3.50;84.20;;;2.43;89.67;96427.88;5015177;28;20461;-68
2023/12/22 06:11:57;;;;;;;0.80;0.40;;;3.40;84.00;;;2.42;89.28;96426.25;5014928;28;20465;-70
2023/12/22 06:14:25;;;;;;;1.33;0.50;;;3.40;84.10;;;2.41;89.79;96436.06;5007544;28;20463;-69
2023/12/22 06:16:53;;;;;;;3.13;0.60;;;3.40;84.30;;;2.41;89.92;96440.59;4996501;28;20524;-70
2023/12/22 06:19:24;;;;;;;3.63;0.40;;;3.40;84.60;;;2.35;89.54;96433.38;5007904;28;20561;-70
2023/12/22 06:21:51;;;;;;;1.37;0.60;;;3.40;84.00;;;2.36;89.32;96432.41;5014601;28;20454;-76
2023/12/22 06:24:19;;;;;;;1.07;0.53;;;3.40;84.10;;;2.44;89.21;96434.84;5016958;28;20467;-68
2023/12/22 06:26:48;;;;;;;0.50;0.40;;;3.40;84.10;;;2.43;89.32;96454.53;5021955;28;20539;-69
2023/12/22 06:29:15;;;;;;;0.70;0.40;;;3.40;84.00;;;2.41;90.03;96468.06;5004884;28;20458;-69
2023/12/22 06:31:42;;;;;;;0.40;0.30;;;3.40;84.40;;;2.34;91.37;96450.41;4998731;28;21039;-69
2023/12/22 06:34:10;;;;;;;0.60;0.20;;;3.40;84.90;;;2.33;92.52;96454.94;5001126;28;20596;-70
2023/12/22 06:36:37;;;;;;;0.97;0.47;;;3.30;86.20;;;2.30;93.00;96462.50;5016540;28;20487;-69
2023/12/22 06:39:05;;;;;;;0.57;0.50;;;3.30;87.60;;;2.31;94.57;96456.16;5015001;28;20945;-69
2023/12/22 06:41:34;;;;;;;0.50;0.50;;;3.20;89.00;;;2.26;95.87;96454.91;5017098;28;20906;-68
2023/12/22 06:44:01;;;;;;;0.60;0.50;;;3.20;90.20;;;2.08;96.50;96454.66;5010243;28;20484;-68
2023/12/22 06:46:30;;;;;;;0.70;0.50;;;3.00;90.60;;;1.89;97.74;96448.22;5020529;28;20460;-71
2023/12/22 06:48:58;;;;;;;0.93;0.60;;;2.90;91.20;;;1.80;99.24;96451.03;4998015;28;20466;-76
2023/12/22 06:51:28;;;;;;;1.10;0.80;;;2.80;92.10;;;1.25;99.41;96392.41;5003448;28;20478;-68
2023/12/22 06:53:56;;;;;;;1.33;1.00;;;2.70;92.70;;;1.76;100.00;96455.13;5002624;28;20466;-68
2023/12/22 06:56:29;;;;;;;1.07;0.70;;;2.70;93.20;;;1.78;99.89;96463.75;4998489;28;20472;-68
2023/12/22 07:01:43;;;;;;;1.40;1.13;;;2.80;93.40;;;1.97;99.18;96446.22;5003706;28;20853;-68
2023/12/22 07:04:10;;;;;;;2.40;1.10;;;2.90;93.00;;;1.74;98.45;96424.38;5000166;28;20456;-67
2023/12/22 07:06:40;;;;;;;2.03;1.43;;;3.00;92.70;;;2.14;98.03;96464.50;5003371;28;20473;-67
2023/12/22 07:09:34;;;;;;;1.83;1.50;;;3.00;92.20;;;2.34;96.72;96456.56;4998513;28;20461;-67
2023/12/22 07:12:03;;;;;;;2.47;1.87;;;3.20;91.70;;;2.46;95.71;96459.47;5017855;28;20469;-67
2023/12/22 07:14:35;;;;;;;4.97;2.07;;;3.30;91.10;;;2.61;95.08;96461.13;5015961;28;20518;-69
2023/12/22 07:17:02;;;;;;;1.80;1.60;;;3.50;90.30;;;2.75;94.00;96473.47;4994374;28;20576;-68
2023/12/22 07:19:29;;;;;;;5.47;1.60;;;3.60;89.50;;;2.90;93.54;96459.94;5021967;28;20550;-68
2023/12/22 07:21:57;;;;;;;2.00;1.40;;;3.70;89.30;;;2.95;92.33;96459.31;5005374;28;20489;-67
2023/12/22 07:24:25;;;;;;;2.93;1.60;;;3.80;88.70;;;3.08;92.65;96467.31;5016001;28;20468;-70
2023/12/22 07:26:52;;;;;;;2.83;1.37;;;3.90;88.20;;;3.14;91.31;96456.88;4995834;28;20451;-68
2023/12/22 07:29:20;;;;;;;4.70;1.97;;;4.00;87.80;;;3.23;91.84;96458.28;5001423;28;20592;-67
2023/12/22 07:31:49;;;;;;;4.53;1.43;;;4.10;87.80;;;3.34;91.75;96468.34;5013264;28;20476;-69
2023/12/22 07:34:18;;;;;;;3.70;1.67;;;4.20;88.40;;;3.34;92.42;96480.88;5013569;28;20461;-73
2023/12/22 07:36:46;;;;;;;6.97;1.90;;;4.20;88.40;;;3.45;92.33;96490.91;5010942;28;20544;-68
2023/12/22 07:39:13;;;;;;;7.47;1.30;;;4.30;88.60;;;3.48;92.57;96508.38;5013330;28;20466;-68
2023/12/22 07:41:41;;;;;;;7.40;1.80;;;4.40;89.10;;;3.75;95.39;96503.00;4990488;28;20474;-69
2023/12/22 07:44:08;;;;;;;10.10;2.00;;;4.50;91.10;;;3.67;94.48;96496.81;5016264;28;20459;-68
2023/12/22 07:46:36;;;;;;;5.73;1.70;;;4.50;90.50;;;3.64;95.22;96486.56;5012887;28;20465;-68
2023/12/22 07:49:05;;;;;;;4.90;1.40;;;4.50;90.80;;;3.59;95.18;96502.41;5001681;28;20457;-68
2023/12/22 07:51:32;;;;;;;2.20;1.20;;;4.50;90.60;;;3.59;96.95;96504.25;5014215;28;20494;-68
2023/12/22 07:54:00;;;;;;;2.77;1.33;;;4.50;91.50;;;3.59;97.40;96513.09;4992821;28;21105;-68
2023/12/22 07:56:28;;;;;;;4.40;1.30;;;4.50;91.70;;;3.54;96.96;96503.03;5015288;28;20478;-68
2023/12/22 07:58:55;;;;;;;3.80;1.57;;;4.50;91.80;;;3.58;97.93;96524.81;4995760;28;20517;-68
2023/12/22 08:01:24;;;;;;;2.00;1.20;;;4.50;92.30;;;3.24;98.01;96476.75;5015853;28;21338;-68
2023/12/22 08:03:51;;;;;;;2.33;1.27;;;4.40;92.20;;;3.47;97.87;96534.25;5012095;28;20466;-68
2023/12/22 08:06:19;;;;;;;2.17;1.00;;;4.40;92.20;;;3.39;98.11;96505.91;5010686;28;20467;-68
2023/12/22 08:08:48;;;;;;;1.87;1.10;;;4.40;92.30;;;3.59;98.23;96523.78;4998366;28;20495;-68
2023/12/22 08:11:15;;;;;;;2.60;1.60;;;4.50;92.60;;;3.60;98.46;96517.41;5003578;28;20478;-68
2023/12/22 08:13:43;;;;;;;2.53;1.57;;;4.50;92.70;;;3.64;98.98;96528.47;5018536;28;20454;-67
2023/12/22 08:16:10;;;;;;;3.40;1.10;;;4.60;92.60;;;3.69;98.48;96542.03;5009798;28;20548;-67
2023/12/22 08:18:38;;;;;;;3.47;1.23;;;4.60;92.60;;;3.76;98.99;96537.50;5013403;28;20476;-68
2023/12/22 08:21:06;;;;;;;3.27;1.63;;;4.70;92.60;;;3.89;98.78;96536.66;5018126;28;20510;-69
2023/12/22 08:23:35;;;;;;;3.93;1.60;;;4.70;92.70;;;3.88;96.82;96534.19;5021014;28;20461;-68
2023/12/22 08:26:03;;;;;;;3.47;1.23;;;4.70;91.60;;;3.83;96.57;96527.63;4991384;28;20461;-68
2023/12/22 08:28:30;;;;;;;3.63;1.47;;;4.70;91.40;;;3.91;96.13;96539.94;4993532;28;20464;-68
2023/12/22 08:30:58;;;;;;;4.83;1.47;;;4.70;91.40;;;3.80;96.90;96527.22;5019317;28;20469;-70
2023/12/22 08:33:26;;;;;;;3.67;1.77;;;4.80;91.40;;;3.95;96.06;96557.19;5003854;28;20448;-69
2023/12/22 08:35:55;;;;;;;2.23;0.77;;;4.80;91.20;;;3.96;95.15;96548.16;4995202;28;20548;-69
2023/12/22 08:38:22;;;;;;;3.50;1.63;;;4.80;91.10;;;3.92;95.40;96562.13;5016907;28;20479;-69
2023/12/22 08:40:50;;;;;;;1.10;1.00;;;4.80;90.90;;;4.10;96.07;96572.19;5019620;28;20472;-69
2023/12/22 08:43:18;;;;;;;0.83;0.70;;;4.90;91.20;;;3.59;96.75;96510.41;4992566;28;20841;-69
2023/12/22 08:45:45;;;;;;;4.00;1.37;;;4.90;91.50;;;3.92;97.70;96576.31;5022043;28;20561;-67
2023/12/22 08:48:13;;;;;;;1.50;1.20;;;4.80;91.80;;;3.91;97.09;96582.69;5014060;28;20477;-68
2023/12/22 08:50:41;;;;;;;2.40;1.00;;;4.80;92.10;;;3.81;96.18;96564.44;5014885;28;20460;-68
2023/12/22 08:53:09;;;;;;;1.50;1.20;;;4.70;91.20;;;3.84;95.89;96576.53;5004581;28;20970;-69
2023/12/22 08:55:39;;;;;;;5.23;1.23;;;4.70;91.20;;;3.91;96.07;96582.69;5005007;28;20577;-70
2023/12/22 08:58:08;;;;;;;1.47;0.90;;;4.80;91.50;;;3.97;96.02;96589.88;4999586;28;20457;-69
2023/12/22 09:00:38;;;;;;;2.90;1.27;;;4.80;91.40;;;3.60;95.97;96530.75;5001907;28;21023;-70
2023/12/22 09:03:08;;;;;;;3.33;1.20;;;4.80;91.10;;;4.07;95.60;96591.31;5022584;28;20491;-70
2023/12/22 09:05:36;;;;;;;3.03;0.77;;;4.90;91.20;;;3.71;94.57;96529.28;4998974;28;20468;-72
2023/12/22 09:08:06;;;;;;;1.60;1.20;;;4.90;90.70;;;4.12;95.39;96586.16;5015679;28;21357;-69
2023/12/22 09:10:35;;;;;;;1.57;1.10;;;5.00;90.90;;;4.22;94.74;96599.91;5001717;28;20561;-69
2023/12/22 09:13:04;;;;;;;4.23;1.63;;;5.00;90.80;;;4.19;94.77;96565.59;5007439;28;20453;-78
2023/12/22 09:15:41;;;;;;;4.47;1.43;;;5.10;90.90;;;4.42;94.43;96576.81;5014940;28;20473;-70
2023/12/22 09:18:11;;;;;;;3.97;1.40;;;5.10;90.80;;;4.44;93.64;96574.75;5025519;28;20452;-69
2023/12/22 09:20:43;;;;;;;2.57;1.47;;;5.20;90.40;;;4.52;92.97;96566.47;5014028;28;20566;-77
2023/12/22 09:23:11;;;;;;;7.27;1.60;;;5.30;90.20;;;4.62;92.14;96566.00;5002575;28;20453;-72
2023/12/22 09:25:39;;;;;;;3.20;1.27;;;5.30;90.10;;;4.70;91.60;96584.50;5024543;28;20512;-73
2023/12/22 09:28:06;;;;;;;6.00;1.23;;;5.50;89.20;;;4.70;90.03;96570.31;5023239;28;20547;-79
2023/12/22 09:30:36;;;;;;;2.40;1.10;;;5.50;87.70;;;4.73;89.32;96551.97;5017488;28;20467;-79
2023/12/22 09:33:04;;;;;;;6.33;1.93;;;5.60;87.00;;;4.90;88.71;96565.69;5004468;28;20460;-77
2023/12/22 09:35:32;;;;;;;4.70;1.33;;;5.70;86.80;;;4.91;86.76;96586.06;5003581;28;20467;-74
2023/12/22 09:37:59;;;;;;;3.50;1.47;;;5.70;85.30;;;5.01;86.06;96577.56;5000970;28;20560;-77
2023/12/22 09:40:26;;;;;;;4.43;0.97;;;5.80;84.80;;;5.04;86.35;96574.44;5009276;28;20544;-72
2023/12/22 09:42:56;;;;;;;8.27;1.70;;;5.90;84.90;;;4.90;87.49;96591.63;5000938;28;21130;-73
2023/12/22 09:45:23;;;;;;;6.70;2.00;;;5.80;85.50;;;4.62;90.74;96608.81;5017984;28;21195;-72
2023/12/22 09:47:53;;;;;;;17.13;8.87;;;5.60;86.50;;;4.45;93.49;96592.44;5008344;28;21027;-73
2023/12/22 09:50:22;;;;;;;5.43;1.93;;;5.40;89.50;;;4.15;95.88;96571.56;4996327;28;20990;-73
2023/12/22 09:52:51;;;;;;;4.83;1.20;;;5.20;90.70;;;4.11;97.00;96582.66;5000289;28;20454;-73
2023/12/22 09:55:22;;;;;;;5.13;2.30;;;5.10;91.70;;;3.98;97.35;96585.38;5007943;28;20518;-72
2023/12/22 09:57:59;;;;;;;7.07;2.10;;;4.90;91.80;;;3.93;98.99;96577.97;5003758;28;20519;-71
2023/12/22 10:00:31;;;;;;;2.00;1.37;;;4.80;93.10;;;3.69;100.00;96598.94;5019961;28;20456;-73
2023/12/22 10:03:00;;;;;;;5.37;1.30;;;4.70;93.50;;;3.57;100.00;96597.94;5015632;28;20549;-74
2023/12/22 10:05:27;;;;;;;1.43;1.07;;;4.60;95.00;;;3.52;100.00;96603.91;5024123;28;20492;-74
2023/12/22 10:07:56;;;;;;;7.00;2.00;;;4.50;96.30;;;3.59;100.00;96606.56;5016033;28;20544;-73
2023/12/22 10:10:25;;;;;;;2.50;1.50;;;4.50;97.40;;;3.52;100.00;96579.88;5025255;28;20456;-74
2023/12/22 10:12:54;;;;;;;4.73;1.80;;;4.40;98.00;;;3.57;100.00;96578.41;5018241;28;20475;-73
2023/12/22 10:15:24;;;;;;;4.60;2.80;;;4.40;98.80;;;3.63;100.00;96586.44;5002660;28;20560;-73
2023/12/22 10:17:51;;;;;;;5.40;2.30;;;4.40;99.30;;;3.67;100.00;96565.47;5022128;28;20477;-73
2023/12/22 10:20:22;;;;;;;5.93;2.67;;;4.50;99.90;;;3.78;100.00;96585.38;5001194;28;20450;-73
2023/12/22 10:22:49;;;;;;;6.67;2.10;;;4.50;99.90;;;3.71;100.00;96574.72;5019760;28;20454;-71
2023/12/22 10:25:18;;;;;;;4.30;1.73;;;4.50;99.90;;;3.28;100.00;96535.06;5016543;28;20484;-70
2023/12/22 10:27:46;;;;;;;3.30;1.80;;;4.50;99.90;;;2.86;100.00;96496.03;5007552;28;20531;-70
2023/12/22 10:30:14;;;;;;;5.00;2.17;;;4.30;97.90;;;3.12;100.00;96590.50;5007177;28;20574;-68
2023/12/22 10:32:43;;;;;;;2.60;1.20;;;4.10;96.80;;;2.86;100.00;96567.25;4981107;28;20466;-71
2023/12/22 10:35:11;;;;;;;1.13;1.03;;;3.90;98.00;;;2.65;100.00;96575.22;5000500;28;20458;-68
2023/12/22 10:37:39;;;;;;;2.03;1.30;;;3.70;99.10;;;2.71;100.00;96578.09;5020769;28;20901;-69
2023/12/22 10:40:10;;;;;;;4.33;2.13;;;3.60;99.90;;;2.73;100.00;96592.03;5021065;28;21022;-69